createdAt,value
2024-05-09T00:04:27.156Z,20.0
2024-05-09T00:09:58.958Z,19.8
2024-05-09T00:15:30.554Z,20.6
2024-05-09T00:21:02.600Z,19.2
2024-05-09T00:26:33.601Z,20.4
2024-05-09T00:32:05.489Z,19.5
2024-05-09T00:37:37.005Z,19.9
2024-05-09T00:43:08.801Z,18.8
2024-05-09T00:48:40.213Z,20.6
2024-05-09T00:54:12.141Z,21.4
2024-05-09T00:59:43.564Z,20.8
2024-05-09T01:05:19.455Z,20.4
2024-05-09T01:10:51.176Z,18.6
2024-05-09T01:16:22.933Z,19.4
2024-05-09T01:21:54.429Z,20.3
2024-05-09T01:27:26.159Z,19.2
2024-05-09T01:32:57.628Z,18.6
2024-05-09T01:38:29.469Z,19.0
2024-05-09T01:44:00.979Z,18.6
2024-05-09T01:49:33.504Z,16.8
2024-05-09T01:55:06.266Z,16.0
2024-05-09T02:00:38.523Z,14.7
2024-05-09T02:06:13.958Z,15.4
2024-05-09T02:11:45.452Z,16.3
2024-05-09T02:17:17.292Z,17.7
2024-05-09T02:22:48.810Z,17.2
2024-05-09T02:28:20.454Z,17.1
2024-05-09T02:33:52.120Z,17.6
2024-05-09T02:39:23.527Z,18.4
2024-05-09T02:44:55.307Z,20.0
2024-05-09T02:50:30.496Z,19.7
2024-05-09T02:55:58.603Z,20.1
2024-05-09T03:01:30.034Z,19.5
2024-05-09T03:07:06.073Z,20.9
2024-05-09T03:12:39.177Z,19.5
2024-05-09T03:18:09.662Z,19.0
2024-05-09T03:23:41.060Z,21.9
2024-05-09T03:29:12.606Z,22.5
2024-05-09T03:34:44.236Z,18.8
2024-05-09T03:40:20.747Z,17.5
2024-05-09T03:45:47.481Z,18.5
2024-05-09T03:51:19.122Z,16.7
2024-05-09T03:56:50.887Z,17.6
2024-05-09T04:02:22.447Z,19.4
2024-05-09T04:08:01.156Z,19.9
2024-05-09T04:13:32.179Z,22.5
2024-05-09T04:19:03.725Z,19.8
2024-05-09T04:24:35.354Z,21.8
2024-05-09T04:30:12.316Z,21.4
2024-05-09T04:35:38.875Z,21.0
2024-05-09T04:41:10.477Z,24.8
2024-05-09T04:46:42.339Z,23.7
2024-05-09T04:52:13.553Z,22.5
2024-05-09T04:57:45.020Z,23.4
2024-05-09T05:03:17.146Z,22.7
2024-05-09T05:08:52.650Z,22.6
2024-05-09T05:14:24.367Z,24.0
2024-05-09T05:19:56.410Z,24.7
2024-05-09T05:25:27.748Z,25.6
2024-05-09T05:30:59.603Z,27.5
2024-05-09T05:36:30.868Z,28.8
2024-05-09T05:42:02.687Z,30.1
2024-05-09T05:47:34.273Z,32.0
2024-05-09T05:53:05.848Z,30.5
2024-05-09T05:58:37.434Z,31.1
2024-05-09T06:04:09.096Z,31.1
2024-05-09T06:09:47.658Z,31.7
2024-05-09T06:15:18.850Z,32.2
2024-05-09T06:20:50.529Z,32.7
2024-05-09T06:26:22.192Z,32.2
2024-05-09T06:31:54.425Z,34.4
2024-05-09T06:37:25.451Z,33.8
2024-05-09T06:42:56.853Z,33.4
2024-05-09T06:48:28.614Z,35.1
2024-05-09T06:54:00.105Z,36.6
2024-05-09T06:59:32.006Z,34.1
2024-05-09T07:05:03.615Z,35.1
2024-05-09T07:10:39.739Z,30.9
2024-05-09T07:16:11.192Z,30.9
2024-05-09T07:21:42.632Z,26.2
2024-05-09T07:27:14.262Z,26.6
2024-05-09T07:32:46.546Z,25.8
2024-05-09T07:38:17.577Z,21.8
2024-05-09T07:43:49.183Z,17.5
2024-05-09T07:54:52.858Z,10.5
2024-05-09T08:00:29.337Z,9.4
2024-05-09T08:05:56.030Z,8.7
2024-05-09T08:11:31.982Z,7.8
2024-05-09T08:17:03.518Z,7.5
2024-05-09T08:23:06.081Z,7.7
2024-05-09T08:28:06.807Z,7.2
2024-05-09T08:33:38.961Z,7.2
2024-05-09T08:39:09.916Z,7.1
2024-05-09T08:44:41.718Z,7.7
2024-05-09T08:50:19.918Z,7.5
2024-05-09T08:55:44.990Z,7.6
2024-05-09T09:01:16.616Z,6.9
2024-05-09T09:06:48.202Z,7.1
2024-05-09T09:12:26.242Z,6.3
2024-05-09T09:17:58.162Z,5.7
2024-05-09T09:23:29.447Z,6.1
2024-05-09T09:29:01.281Z,6.4
2024-05-09T09:34:32.993Z,5.2
2024-05-09T09:40:04.726Z,5.5
2024-05-09T09:45:35.982Z,5.3
2024-05-09T09:51:07.825Z,5.3
2024-05-09T09:56:39.450Z,4.8
2024-05-09T10:02:11.074Z,4.5
2024-05-09T10:07:42.705Z,4.4
2024-05-09T10:13:20.838Z,3.7
2024-05-09T10:18:52.983Z,4.1
2024-05-09T10:24:23.831Z,3.6
2024-05-09T10:29:55.705Z,2.9
2024-05-09T10:35:27.116Z,3.1
2024-05-09T10:40:58.722Z,3.3
2024-05-09T10:46:30.416Z,3.4
2024-05-09T10:52:02.021Z,3.3
2024-05-09T10:57:33.667Z,3.1
2024-05-09T11:03:05.450Z,3.3
2024-05-09T11:08:37.097Z,3.6
2024-05-09T11:14:12.960Z,3.1
2024-05-09T11:19:45.189Z,2.8
2024-05-09T11:25:16.308Z,3.1
2024-05-09T11:30:48.041Z,3.1
2024-05-09T11:36:19.483Z,3.5
2024-05-09T11:41:51.274Z,2.7
2024-05-09T11:47:22.773Z,2.7
2024-05-09T11:52:54.521Z,3.1
2024-05-09T11:58:26.202Z,2.9
2024-05-09T12:03:57.905Z,3.4
2024-05-09T12:09:29.300Z,3.8
2024-05-09T12:15:12.646Z,3.2
2024-05-09T12:20:43.963Z,2.9
2024-05-09T12:26:15.610Z,2.8
2024-05-09T12:31:47.272Z,3.2
2024-05-09T12:37:18.700Z,2.9
2024-05-09T12:42:50.247Z,3.2
2024-05-09T12:48:22.175Z,3.0
2024-05-09T12:53:53.743Z,2.8
2024-05-09T12:59:25.162Z,3.0
2024-05-09T13:04:56.854Z,2.8
2024-05-09T13:10:31.767Z,2.7
2024-05-09T13:16:04.469Z,3.1
2024-05-09T13:21:36.114Z,3.2
2024-05-09T13:27:10.113Z,3.0
2024-05-09T13:32:41.542Z,3.1
2024-05-09T13:38:12.955Z,3.0
2024-05-09T13:43:44.908Z,3.3
2024-05-09T13:49:16.718Z,4.4
2024-05-09T13:54:48.243Z,3.5
2024-05-09T14:05:52.056Z,2.9
2024-05-09T14:11:23.051Z,3.0
2024-05-09T14:17:01.161Z,2.7
2024-05-09T14:22:32.718Z,2.7
2024-05-09T14:28:04.346Z,2.8
2024-05-09T14:33:35.838Z,2.7
2024-05-09T14:39:07.362Z,2.9
2024-05-09T14:44:39.009Z,2.8
2024-05-09T14:50:13.844Z,3.4
2024-05-09T14:55:43.081Z,3.1
2024-05-09T15:01:14.358Z,2.7
2024-05-09T15:06:45.809Z,3.0
2024-05-09T15:12:17.243Z,2.7
2024-05-09T15:17:53.363Z,2.6
2024-05-09T15:23:25.173Z,2.4
2024-05-09T15:28:56.732Z,2.7
2024-05-09T15:34:28.364Z,2.5
2024-05-09T15:39:59.776Z,2.7
2024-05-09T15:45:31.663Z,2.6
2024-05-09T15:51:03.023Z,2.5
2024-05-09T15:56:34.916Z,2.6
2024-05-09T16:02:06.454Z,2.7
2024-05-09T16:07:38.637Z,3.6
2024-05-09T16:13:09.782Z,2.9
2024-05-09T16:18:45.836Z,3.1
2024-05-09T16:24:17.214Z,2.7
2024-05-09T16:29:48.818Z,2.9
2024-05-09T16:35:20.574Z,2.7
2024-05-09T16:40:53.721Z,2.8
2024-05-09T16:46:23.872Z,3.0
2024-05-09T16:51:55.592Z,3.1
2024-05-09T16:57:27.034Z,2.9
2024-05-09T17:02:58.931Z,3.2
2024-05-09T17:08:30.301Z,3.1
2024-05-09T17:14:02.127Z,2.8
2024-05-09T17:19:37.892Z,2.6
2024-05-09T17:25:09.661Z,2.9
2024-05-09T17:30:42.246Z,3.1
2024-05-09T17:36:13.123Z,2.9
2024-05-09T17:41:44.471Z,3.1
2024-05-09T17:47:16.276Z,3.4
2024-05-09T17:52:47.735Z,3.2
2024-05-09T17:58:19.547Z,3.2
2024-05-09T18:03:51.429Z,3.2
2024-05-09T18:09:22.802Z,3.2
2024-05-09T18:14:54.270Z,3.3
2024-05-09T18:20:36.019Z,3.1
2024-05-09T18:26:03.304Z,2.8
2024-05-09T18:31:33.804Z,3.0
2024-05-09T18:37:05.208Z,3.6
2024-05-09T18:42:37.034Z,3.5
2024-05-09T18:48:08.914Z,3.3
2024-05-09T18:53:41.274Z,3.2
2024-05-09T18:59:12.945Z,3.6
2024-05-09T19:04:43.390Z,3.4
2024-05-09T19:10:21.813Z,3.8
2024-05-09T19:15:46.653Z,3.3
2024-05-09T19:21:22.786Z,3.4
2024-05-09T19:26:54.830Z,3.5
2024-05-09T19:32:26.175Z,3.7
2024-05-09T19:37:57.744Z,3.7
2024-05-09T19:43:31.401Z,3.6
2024-05-09T19:49:01.548Z,3.4
2024-05-09T19:54:32.467Z,3.7
2024-05-09T20:00:05.698Z,3.9
2024-05-09T20:05:36.247Z,3.9
2024-05-09T20:11:07.471Z,4.0
2024-05-09T20:16:38.940Z,3.8
2024-05-09T20:22:15.009Z,4.1
2024-05-09T20:27:46.891Z,4.2
2024-05-09T20:33:18.247Z,4.3
2024-05-09T20:38:49.899Z,4.8
2024-05-09T20:44:21.684Z,4.3
2024-05-09T20:49:53.115Z,4.0
2024-05-09T20:55:24.853Z,3.9
2024-05-09T21:00:56.605Z,4.6
2024-05-09T21:06:28.208Z,4.8
2024-05-09T21:11:59.865Z,5.2
2024-05-09T21:17:31.537Z,4.4
2024-05-09T21:23:07.245Z,4.7
2024-05-09T21:28:39.132Z,4.5
2024-05-09T21:34:10.557Z,4.6
2024-05-09T21:39:42.707Z,4.7
2024-05-09T21:45:13.813Z,5.2
2024-05-09T21:50:45.712Z,5.6
2024-05-09T21:56:17.057Z,5.5
2024-05-09T22:01:48.956Z,5.0
2024-05-09T22:07:20.344Z,5.3
2024-05-09T22:12:52.116Z,5.0
2024-05-09T22:18:23.610Z,6.0
2024-05-09T22:23:59.758Z,5.6
2024-05-09T22:29:31.202Z,5.2
2024-05-09T22:35:02.971Z,4.9
2024-05-09T22:46:06.088Z,4.7
2024-05-09T22:51:37.969Z,5.2
2024-05-09T22:57:09.654Z,5.0
2024-05-09T23:02:41.278Z,5.3
2024-05-09T23:08:12.907Z,5.9
2024-05-09T23:13:44.600Z,6.4
2024-05-09T23:19:16.170Z,6.9
2024-05-09T23:24:54.151Z,6.8
2024-05-09T23:30:28.967Z,7.1
2024-05-09T23:35:57.632Z,6.6
2024-05-09T23:41:28.784Z,6.2
2024-05-09T23:47:01.186Z,5.1
2024-05-09T23:52:32.494Z,5.9
2024-05-09T23:58:04.025Z,6.2
